sensor_id;sensor_type;location;lat;lon;timestamp;P1;durP1;ratioP1;P2;durP2;ratioP2
11384;SDS011;5747;56.748;13.882;2023-07-22T00:02:07;3.07;;;2.17;;
11384;SDS011;5747;56.748;13.882;2023-07-22T00:04:35;3.67;;;1.67;;
11384;SDS011;5747;56.748;13.882;2023-07-22T00:07:05;1.83;;;1.40;;
11384;SDS011;5747;56.748;13.882;2023-07-22T00:09:33;2.83;;;1.40;;
11384;SDS011;5747;56.748;13.882;2023-07-22T00:12:02;3.00;;;1.27;;
11384;SDS011;5747;56.748;13.882;2023-07-22T00:14:30;2.30;;;1.30;;
11384;SDS011;5747;56.748;13.882;2023-07-22T00:16:59;2.70;;;1.50;;
11384;SDS011;5747;56.748;13.882;2023-07-22T00:19:27;3.00;;;1.30;;
11384;SDS011;5747;56.748;13.882;2023-07-22T00:21:55;2.53;;;1.33;;
11384;SDS011;5747;56.748;13.882;2023-07-22T00:24:24;1.90;;;1.20;;
11384;SDS011;5747;56.748;13.882;2023-07-22T00:26:53;6.63;;;1.30;;
11384;SDS011;5747;56.748;13.882;2023-07-22T00:29:21;5.80;;;1.57;;
11384;SDS011;5747;56.748;13.882;2023-07-22T00:31:49;4.00;;;1.40;;
11384;SDS011;5747;56.748;13.882;2023-07-22T00:34:17;4.03;;;1.53;;
11384;SDS011;5747;56.748;13.882;2023-07-22T00:36:46;4.33;;;1.50;;
11384;SDS011;5747;56.748;13.882;2023-07-22T00:39:14;6.30;;;1.70;;
11384;SDS011;5747;56.748;13.882;2023-07-22T00:41:43;7.27;;;1.80;;
11384;SDS011;5747;56.748;13.882;2023-07-22T00:44:12;1.73;;;1.43;;
11384;SDS011;5747;56.748;13.882;2023-07-22T00:46:40;2.80;;;1.40;;
11384;SDS011;5747;56.748;13.882;2023-07-22T00:49:08;3.33;;;1.40;;
11384;SDS011;5747;56.748;13.882;2023-07-22T00:51:37;1.97;;;1.60;;
11384;SDS011;5747;56.748;13.882;2023-07-22T00:54:05;1.77;;;1.50;;
11384;SDS011;5747;56.748;13.882;2023-07-22T00:56:35;3.00;;;1.53;;
11384;SDS011;5747;56.748;13.882;2023-07-22T00:59:05;1.37;;;1.27;;
11384;SDS011;5747;56.748;13.882;2023-07-22T01:01:34;4.63;;;1.70;;
11384;SDS011;5747;56.748;13.882;2023-07-22T01:04:02;2.50;;;1.60;;
11384;SDS011;5747;56.748;13.882;2023-07-22T01:06:31;2.57;;;1.50;;
11384;SDS011;5747;56.748;13.882;2023-07-22T01:09:00;4.80;;;1.60;;
11384;SDS011;5747;56.748;13.882;2023-07-22T01:11:28;5.53;;;1.73;;
11384;SDS011;5747;56.748;13.882;2023-07-22T01:13:56;3.30;;;1.60;;
11384;SDS011;5747;56.748;13.882;2023-07-22T01:16:27;3.17;;;1.27;;
11384;SDS011;5747;56.748;13.882;2023-07-22T01:18:56;2.97;;;1.20;;
11384;SDS011;5747;56.748;13.882;2023-07-22T01:21:25;2.57;;;1.30;;
11384;SDS011;5747;56.748;13.882;2023-07-22T01:23:55;3.60;;;1.53;;
11384;SDS011;5747;56.748;13.882;2023-07-22T01:26:23;3.27;;;1.40;;
11384;SDS011;5747;56.748;13.882;2023-07-22T01:29:01;3.47;;;1.60;;
11384;SDS011;5747;56.748;13.882;2023-07-22T01:31:30;3.07;;;1.50;;
11384;SDS011;5747;56.748;13.882;2023-07-22T01:33:58;1.80;;;1.57;;
11384;SDS011;5747;56.748;13.882;2023-07-22T01:36:26;2.67;;;1.50;;
11384;SDS011;5747;56.748;13.882;2023-07-22T01:38:55;2.93;;;1.70;;
11384;SDS011;5747;56.748;13.882;2023-07-22T01:41:24;3.10;;;1.80;;
11384;SDS011;5747;56.748;13.882;2023-07-22T01:43:52;2.33;;;1.70;;
11384;SDS011;5747;56.748;13.882;2023-07-22T01:46:20;3.50;;;2.00;;
11384;SDS011;5747;56.748;13.882;2023-07-22T01:48:48;5.43;;;2.40;;
11384;SDS011;5747;56.748;13.882;2023-07-22T01:51:16;3.23;;;2.00;;
11384;SDS011;5747;56.748;13.882;2023-07-22T01:53:44;4.47;;;2.00;;
11384;SDS011;5747;56.748;13.882;2023-07-22T01:56:14;4.57;;;1.70;;
11384;SDS011;5747;56.748;13.882;2023-07-22T01:58:42;5.17;;;2.00;;
11384;SDS011;5747;56.748;13.882;2023-07-22T02:01:11;5.27;;;1.90;;
11384;SDS011;5747;56.748;13.882;2023-07-22T02:03:40;3.23;;;2.17;;
11384;SDS011;5747;56.748;13.882;2023-07-22T02:06:08;4.07;;;2.10;;
11384;SDS011;5747;56.748;13.882;2023-07-22T02:08:37;3.20;;;2.00;;
11384;SDS011;5747;56.748;13.882;2023-07-22T02:11:05;2.67;;;1.93;;
11384;SDS011;5747;56.748;13.882;2023-07-22T02:13:37;4.90;;;2.30;;
11384;SDS011;5747;56.748;13.882;2023-07-22T02:16:05;4.63;;;1.90;;
11384;SDS011;5747;56.748;13.882;2023-07-22T02:18:38;3.53;;;1.90;;
11384;SDS011;5747;56.748;13.882;2023-07-22T02:21:06;6.00;;;2.10;;
11384;SDS011;5747;56.748;13.882;2023-07-22T02:23:34;3.70;;;1.90;;
11384;SDS011;5747;56.748;13.882;2023-07-22T02:26:02;3.17;;;2.07;;
11384;SDS011;5747;56.748;13.882;2023-07-22T02:28:31;3.50;;;2.10;;
11384;SDS011;5747;56.748;13.882;2023-07-22T02:31:02;3.00;;;2.10;;
11384;SDS011;5747;56.748;13.882;2023-07-22T02:33:33;4.20;;;2.20;;
11384;SDS011;5747;56.748;13.882;2023-07-22T02:36:01;2.90;;;2.10;;
11384;SDS011;5747;56.748;13.882;2023-07-22T02:38:30;5.80;;;1.93;;
11384;SDS011;5747;56.748;13.882;2023-07-22T02:41:01;5.07;;;2.10;;
11384;SDS011;5747;56.748;13.882;2023-07-22T02:43:29;2.33;;;1.80;;
11384;SDS011;5747;56.748;13.882;2023-07-22T02:45:59;2.83;;;1.90;;
11384;SDS011;5747;56.748;13.882;2023-07-22T02:48:31;3.47;;;2.13;;
11384;SDS011;5747;56.748;13.882;2023-07-22T02:51:01;4.20;;;1.90;;
11384;SDS011;5747;56.748;13.882;2023-07-22T02:53:31;3.97;;;2.10;;
11384;SDS011;5747;56.748;13.882;2023-07-22T02:56:00;3.10;;;2.00;;
11384;SDS011;5747;56.748;13.882;2023-07-22T02:58:28;2.87;;;1.97;;
11384;SDS011;5747;56.748;13.882;2023-07-22T03:00:56;3.17;;;1.90;;
11384;SDS011;5747;56.748;13.882;2023-07-22T03:03:25;4.10;;;2.00;;
11384;SDS011;5747;56.748;13.882;2023-07-22T03:05:55;3.00;;;2.30;;
11384;SDS011;5747;56.748;13.882;2023-07-22T03:08:24;5.07;;;2.17;;
11384;SDS011;5747;56.748;13.882;2023-07-22T03:10:52;4.97;;;2.13;;
11384;SDS011;5747;56.748;13.882;2023-07-22T03:13:20;2.93;;;2.33;;
11384;SDS011;5747;56.748;13.882;2023-07-22T03:15:49;5.03;;;2.50;;
11384;SDS011;5747;56.748;13.882;2023-07-22T03:18:17;2.77;;;2.20;;
11384;SDS011;5747;56.748;13.882;2023-07-22T03:20:46;7.47;;;2.47;;
11384;SDS011;5747;56.748;13.882;2023-07-22T03:23:15;4.07;;;2.53;;
11384;SDS011;5747;56.748;13.882;2023-07-22T03:25:43;4.83;;;2.47;;
11384;SDS011;5747;56.748;13.882;2023-07-22T03:28:12;4.63;;;2.47;;
11384;SDS011;5747;56.748;13.882;2023-07-22T03:30:40;4.70;;;2.90;;
11384;SDS011;5747;56.748;13.882;2023-07-22T03:33:09;7.70;;;2.93;;
11384;SDS011;5747;56.748;13.882;2023-07-22T03:35:37;5.17;;;2.63;;
11384;SDS011;5747;56.748;13.882;2023-07-22T03:38:07;4.03;;;2.73;;
11384;SDS011;5747;56.748;13.882;2023-07-22T03:40:37;6.03;;;2.50;;
11384;SDS011;5747;56.748;13.882;2023-07-22T03:43:05;5.73;;;2.70;;
11384;SDS011;5747;56.748;13.882;2023-07-22T03:45:33;3.90;;;2.47;;
11384;SDS011;5747;56.748;13.882;2023-07-22T03:48:02;3.73;;;2.50;;
11384;SDS011;5747;56.748;13.882;2023-07-22T03:50:30;4.27;;;2.60;;
11384;SDS011;5747;56.748;13.882;2023-07-22T03:52:58;3.53;;;2.27;;
11384;SDS011;5747;56.748;13.882;2023-07-22T03:55:27;4.30;;;2.20;;
11384;SDS011;5747;56.748;13.882;2023-07-22T03:57:56;3.47;;;2.30;;
11384;SDS011;5747;56.748;13.882;2023-07-22T04:00:24;3.30;;;1.90;;
11384;SDS011;5747;56.748;13.882;2023-07-22T04:02:52;3.73;;;2.07;;
11384;SDS011;5747;56.748;13.882;2023-07-22T04:05:21;2.63;;;1.97;;
11384;SDS011;5747;56.748;13.882;2023-07-22T04:07:49;2.93;;;2.03;;
11384;SDS011;5747;56.748;13.882;2023-07-22T04:10:17;3.87;;;2.10;;
11384;SDS011;5747;56.748;13.882;2023-07-22T04:12:45;2.20;;;2.00;;
11384;SDS011;5747;56.748;13.882;2023-07-22T04:15:15;6.17;;;2.13;;
11384;SDS011;5747;56.748;13.882;2023-07-22T04:17:44;2.07;;;1.87;;
11384;SDS011;5747;56.748;13.882;2023-07-22T04:20:13;4.97;;;2.10;;
11384;SDS011;5747;56.748;13.882;2023-07-22T04:22:41;2.10;;;1.90;;
11384;SDS011;5747;56.748;13.882;2023-07-22T04:25:10;2.90;;;1.93;;
11384;SDS011;5747;56.748;13.882;2023-07-22T04:27:38;2.50;;;2.07;;
11384;SDS011;5747;56.748;13.882;2023-07-22T04:30:07;3.63;;;2.10;;
11384;SDS011;5747;56.748;13.882;2023-07-22T04:32:36;3.40;;;2.10;;
11384;SDS011;5747;56.748;13.882;2023-07-22T04:35:06;4.47;;;2.30;;
11384;SDS011;5747;56.748;13.882;2023-07-22T04:37:36;3.60;;;2.00;;
11384;SDS011;5747;56.748;13.882;2023-07-22T04:40:04;2.17;;;1.80;;
11384;SDS011;5747;56.748;13.882;2023-07-22T04:42:38;2.40;;;1.77;;
11384;SDS011;5747;56.748;13.882;2023-07-22T04:45:06;5.43;;;1.77;;
11384;SDS011;5747;56.748;13.882;2023-07-22T04:47:37;2.63;;;1.60;;
11384;SDS011;5747;56.748;13.882;2023-07-22T04:50:06;1.73;;;1.43;;
11384;SDS011;5747;56.748;13.882;2023-07-22T04:52:36;1.57;;;1.40;;
11384;SDS011;5747;56.748;13.882;2023-07-22T04:55:04;3.77;;;1.60;;
11384;SDS011;5747;56.748;13.882;2023-07-22T04:57:35;1.70;;;1.50;;
11384;SDS011;5747;56.748;13.882;2023-07-22T05:00:04;2.33;;;1.50;;
11384;SDS011;5747;56.748;13.882;2023-07-22T05:02:35;1.70;;;1.60;;
11384;SDS011;5747;56.748;13.882;2023-07-22T05:05:05;1.60;;;1.50;;
11384;SDS011;5747;56.748;13.882;2023-07-22T05:07:34;3.80;;;1.60;;
11384;SDS011;5747;56.748;13.882;2023-07-22T05:10:02;3.63;;;1.87;;
11384;SDS011;5747;56.748;13.882;2023-07-22T05:12:30;1.83;;;1.60;;
11384;SDS011;5747;56.748;13.882;2023-07-22T05:14:58;1.53;;;1.40;;
11384;SDS011;5747;56.748;13.882;2023-07-22T05:17:27;2.47;;;1.70;;
11384;SDS011;5747;56.748;13.882;2023-07-22T05:19:55;1.70;;;1.60;;
11384;SDS011;5747;56.748;13.882;2023-07-22T05:22:25;3.07;;;1.90;;
11384;SDS011;5747;56.748;13.882;2023-07-22T05:24:53;2.67;;;1.87;;
11384;SDS011;5747;56.748;13.882;2023-07-22T05:27:22;2.67;;;1.70;;
11384;SDS011;5747;56.748;13.882;2023-07-22T05:29:50;2.27;;;1.90;;
11384;SDS011;5747;56.748;13.882;2023-07-22T05:32:18;2.07;;;1.70;;
11384;SDS011;5747;56.748;13.882;2023-07-22T05:34:59;2.97;;;1.83;;
11384;SDS011;5747;56.748;13.882;2023-07-22T05:37:29;2.63;;;1.90;;
11384;SDS011;5747;56.748;13.882;2023-07-22T05:39:57;3.77;;;1.87;;
11384;SDS011;5747;56.748;13.882;2023-07-22T05:42:26;4.10;;;1.93;;
11384;SDS011;5747;56.748;13.882;2023-07-22T05:44:54;3.97;;;1.80;;
11384;SDS011;5747;56.748;13.882;2023-07-22T05:47:24;2.20;;;2.00;;
11384;SDS011;5747;56.748;13.882;2023-07-22T05:49:52;2.53;;;1.70;;
11384;SDS011;5747;56.748;13.882;2023-07-22T05:52:20;3.33;;;1.77;;
11384;SDS011;5747;56.748;13.882;2023-07-22T05:54:50;2.80;;;1.87;;
11384;SDS011;5747;56.748;13.882;2023-07-22T05:57:18;2.37;;;2.17;;
11384;SDS011;5747;56.748;13.882;2023-07-22T05:59:46;2.30;;;1.90;;
11384;SDS011;5747;56.748;13.882;2023-07-22T06:02:37;3.70;;;2.17;;
11384;SDS011;5747;56.748;13.882;2023-07-22T06:05:06;3.80;;;2.10;;
11384;SDS011;5747;56.748;13.882;2023-07-22T06:07:34;2.20;;;2.00;;
11384;SDS011;5747;56.748;13.882;2023-07-22T06:10:05;2.10;;;1.90;;
11384;SDS011;5747;56.748;13.882;2023-07-22T06:12:34;2.03;;;1.83;;
11384;SDS011;5747;56.748;13.882;2023-07-22T06:15:03;2.67;;;2.00;;
11384;SDS011;5747;56.748;13.882;2023-07-22T06:17:31;4.07;;;2.13;;
11384;SDS011;5747;56.748;13.882;2023-07-22T06:20:00;2.90;;;2.20;;
11384;SDS011;5747;56.748;13.882;2023-07-22T06:22:28;3.83;;;2.00;;
11384;SDS011;5747;56.748;13.882;2023-07-22T06:24:56;6.77;;;2.10;;
11384;SDS011;5747;56.748;13.882;2023-07-22T06:27:26;2.93;;;1.93;;
11384;SDS011;5747;56.748;13.882;2023-07-22T06:29:54;2.93;;;2.03;;
11384;SDS011;5747;56.748;13.882;2023-07-22T06:32:22;3.17;;;1.70;;
11384;SDS011;5747;56.748;13.882;2023-07-22T06:34:51;3.13;;;2.00;;
11384;SDS011;5747;56.748;13.882;2023-07-22T06:37:19;5.97;;;2.20;;
11384;SDS011;5747;56.748;13.882;2023-07-22T06:39:47;2.50;;;1.83;;
11384;SDS011;5747;56.748;13.882;2023-07-22T06:42:15;3.03;;;1.80;;
11384;SDS011;5747;56.748;13.882;2023-07-22T06:44:45;4.37;;;1.70;;
11384;SDS011;5747;56.748;13.882;2023-07-22T06:47:13;3.37;;;1.70;;
11384;SDS011;5747;56.748;13.882;2023-07-22T06:49:41;2.40;;;1.60;;
11384;SDS011;5747;56.748;13.882;2023-07-22T06:52:13;3.03;;;1.73;;
11384;SDS011;5747;56.748;13.882;2023-07-22T06:54:41;3.37;;;2.10;;
11384;SDS011;5747;56.748;13.882;2023-07-22T06:57:10;3.60;;;1.80;;
11384;SDS011;5747;56.748;13.882;2023-07-22T06:59:38;3.10;;;1.73;;
11384;SDS011;5747;56.748;13.882;2023-07-22T07:02:07;1.77;;;1.50;;
11384;SDS011;5747;56.748;13.882;2023-07-22T07:04:36;2.60;;;1.63;;
11384;SDS011;5747;56.748;13.882;2023-07-22T07:07:04;2.63;;;1.87;;
11384;SDS011;5747;56.748;13.882;2023-07-22T07:09:32;1.90;;;1.70;;
11384;SDS011;5747;56.748;13.882;2023-07-22T07:12:02;4.10;;;2.00;;
11384;SDS011;5747;56.748;13.882;2023-07-22T07:14:32;3.73;;;2.10;;
11384;SDS011;5747;56.748;13.882;2023-07-22T07:17:00;3.60;;;1.47;;
11384;SDS011;5747;56.748;13.882;2023-07-22T07:19:30;3.37;;;1.70;;
11384;SDS011;5747;56.748;13.882;2023-07-22T07:21:58;3.77;;;1.67;;
11384;SDS011;5747;56.748;13.882;2023-07-22T07:24:26;4.07;;;1.90;;
11384;SDS011;5747;56.748;13.882;2023-07-22T07:26:54;4.53;;;1.90;;
11384;SDS011;5747;56.748;13.882;2023-07-22T07:29:23;2.40;;;1.67;;
11384;SDS011;5747;56.748;13.882;2023-07-22T07:32:11;2.77;;;1.70;;
11384;SDS011;5747;56.748;13.882;2023-07-22T07:34:40;2.20;;;1.70;;
11384;SDS011;5747;56.748;13.882;2023-07-22T07:37:08;3.57;;;1.80;;
11384;SDS011;5747;56.748;13.882;2023-07-22T07:39:36;2.53;;;1.67;;
11384;SDS011;5747;56.748;13.882;2023-07-22T07:42:05;4.30;;;1.60;;
11384;SDS011;5747;56.748;13.882;2023-07-22T07:44:33;3.97;;;1.67;;
11384;SDS011;5747;56.748;13.882;2023-07-22T07:47:01;2.50;;;1.50;;
11384;SDS011;5747;56.748;13.882;2023-07-22T07:49:29;2.60;;;1.50;;
11384;SDS011;5747;56.748;13.882;2023-07-22T07:51:59;2.07;;;1.40;;
11384;SDS011;5747;56.748;13.882;2023-07-22T07:54:27;2.10;;;1.47;;
11384;SDS011;5747;56.748;13.882;2023-07-22T07:56:58;2.07;;;1.70;;
11384;SDS011;5747;56.748;13.882;2023-07-22T07:59:26;3.50;;;1.70;;
11384;SDS011;5747;56.748;13.882;2023-07-22T08:01:54;2.37;;;1.60;;
11384;SDS011;5747;56.748;13.882;2023-07-22T08:04:22;3.00;;;1.80;;
11384;SDS011;5747;56.748;13.882;2023-07-22T08:06:51;3.27;;;1.63;;
11384;SDS011;5747;56.748;13.882;2023-07-22T08:09:20;3.47;;;1.53;;
11384;SDS011;5747;56.748;13.882;2023-07-22T08:11:49;2.73;;;1.40;;
11384;SDS011;5747;56.748;13.882;2023-07-22T08:14:17;1.90;;;1.60;;
11384;SDS011;5747;56.748;13.882;2023-07-22T08:16:45;3.43;;;1.80;;
11384;SDS011;5747;56.748;13.882;2023-07-22T08:19:13;2.50;;;1.30;;
11384;SDS011;5747;56.748;13.882;2023-07-22T08:21:41;3.23;;;1.70;;
11384;SDS011;5747;56.748;13.882;2023-07-22T08:24:09;1.73;;;1.50;;
11384;SDS011;5747;56.748;13.882;2023-07-22T08:26:39;3.03;;;1.80;;
11384;SDS011;5747;56.748;13.882;2023-07-22T08:29:07;2.83;;;1.50;;
11384;SDS011;5747;56.748;13.882;2023-07-22T08:31:36;2.67;;;1.60;;
11384;SDS011;5747;56.748;13.882;2023-07-22T08:34:04;1.60;;;1.50;;
11384;SDS011;5747;56.748;13.882;2023-07-22T08:36:32;4.37;;;1.50;;
11384;SDS011;5747;56.748;13.882;2023-07-22T08:39:00;4.97;;;1.70;;
11384;SDS011;5747;56.748;13.882;2023-07-22T08:41:28;2.90;;;1.00;;
11384;SDS011;5747;56.748;13.882;2023-07-22T08:43:59;1.30;;;1.20;;
11384;SDS011;5747;56.748;13.882;2023-07-22T08:46:28;2.77;;;1.40;;
11384;SDS011;5747;56.748;13.882;2023-07-22T08:48:57;2.27;;;1.50;;
11384;SDS011;5747;56.748;13.882;2023-07-22T08:51:27;2.73;;;1.67;;
11384;SDS011;5747;56.748;13.882;2023-07-22T08:53:57;2.77;;;1.90;;
11384;SDS011;5747;56.748;13.882;2023-07-22T08:56:37;3.60;;;2.23;;
11384;SDS011;5747;56.748;13.882;2023-07-22T08:59:07;3.73;;;2.10;;
11384;SDS011;5747;56.748;13.882;2023-07-22T09:01:36;3.27;;;2.00;;
11384;SDS011;5747;56.748;13.882;2023-07-22T09:04:06;4.03;;;2.30;;
11384;SDS011;5747;56.748;13.882;2023-07-22T09:06:35;2.00;;;1.80;;
11384;SDS011;5747;56.748;13.882;2023-07-22T09:09:03;3.70;;;2.07;;
11384;SDS011;5747;56.748;13.882;2023-07-22T09:11:34;2.30;;;1.90;;
11384;SDS011;5747;56.748;13.882;2023-07-22T09:14:03;2.60;;;2.30;;
11384;SDS011;5747;56.748;13.882;2023-07-22T09:16:33;4.17;;;2.10;;
11384;SDS011;5747;56.748;13.882;2023-07-22T09:19:03;1.80;;;1.47;;
11384;SDS011;5747;56.748;13.882;2023-07-22T09:21:31;2.10;;;1.70;;
11384;SDS011;5747;56.748;13.882;2023-07-22T09:24:06;1.83;;;1.60;;
11384;SDS011;5747;56.748;13.882;2023-07-22T09:26:48;2.50;;;1.57;;
11384;SDS011;5747;56.748;13.882;2023-07-22T09:29:16;1.77;;;1.50;;
11384;SDS011;5747;56.748;13.882;2023-07-22T09:31:50;2.73;;;1.50;;
11384;SDS011;5747;56.748;13.882;2023-07-22T09:34:18;3.50;;;1.70;;
11384;SDS011;5747;56.748;13.882;2023-07-22T09:36:50;1.70;;;1.43;;
11384;SDS011;5747;56.748;13.882;2023-07-22T09:39:19;3.77;;;1.50;;
11384;SDS011;5747;56.748;13.882;2023-07-22T09:41:47;2.23;;;1.30;;
11384;SDS011;5747;56.748;13.882;2023-07-22T09:44:16;1.40;;;0.97;;
11384;SDS011;5747;56.748;13.882;2023-07-22T09:46:46;2.27;;;1.10;;
11384;SDS011;5747;56.748;13.882;2023-07-22T09:49:17;1.77;;;0.90;;
11384;SDS011;5747;56.748;13.882;2023-07-22T09:51:46;1.27;;;1.00;;
11384;SDS011;5747;56.748;13.882;2023-07-22T09:54:28;2.03;;;1.07;;
11384;SDS011;5747;56.748;13.882;2023-07-22T09:56:57;2.77;;;1.00;;
11384;SDS011;5747;56.748;13.882;2023-07-22T09:59:25;1.90;;;1.00;;
11384;SDS011;5747;56.748;13.882;2023-07-22T10:01:58;1.37;;;1.20;;
11384;SDS011;5747;56.748;13.882;2023-07-22T10:04:31;1.63;;;1.30;;
11384;SDS011;5747;56.748;13.882;2023-07-22T10:07:02;2.13;;;1.23;;
11384;SDS011;5747;56.748;13.882;2023-07-22T10:09:32;1.03;;;0.83;;
11384;SDS011;5747;56.748;13.882;2023-07-22T10:12:03;1.10;;;1.00;;
11384;SDS011;5747;56.748;13.882;2023-07-22T10:14:32;1.93;;;1.00;;
11384;SDS011;5747;56.748;13.882;2023-07-22T10:17:05;1.50;;;0.93;;
11384;SDS011;5747;56.748;13.882;2023-07-22T10:19:35;1.70;;;1.20;;
11384;SDS011;5747;56.748;13.882;2023-07-22T10:22:04;2.33;;;1.10;;
11384;SDS011;5747;56.748;13.882;2023-07-22T10:24:34;1.73;;;1.00;;
11384;SDS011;5747;56.748;13.882;2023-07-22T10:27:03;1.53;;;0.97;;
11384;SDS011;5747;56.748;13.882;2023-07-22T10:29:33;1.20;;;0.87;;
11384;SDS011;5747;56.748;13.882;2023-07-22T10:32:02;0.90;;;0.90;;
11384;SDS011;5747;56.748;13.882;2023-07-22T10:34:32;1.13;;;0.83;;
11384;SDS011;5747;56.748;13.882;2023-07-22T10:37:00;1.00;;;0.90;;
11384;SDS011;5747;56.748;13.882;2023-07-22T10:39:30;2.57;;;1.27;;
11384;SDS011;5747;56.748;13.882;2023-07-22T10:42:01;3.77;;;1.10;;
11384;SDS011;5747;56.748;13.882;2023-07-22T10:44:31;2.50;;;1.10;;
11384;SDS011;5747;56.748;13.882;2023-07-22T10:47:00;1.27;;;1.03;;
11384;SDS011;5747;56.748;13.882;2023-07-22T10:49:43;1.97;;;1.17;;
11384;SDS011;5747;56.748;13.882;2023-07-22T10:52:12;1.60;;;1.10;;
11384;SDS011;5747;56.748;13.882;2023-07-22T10:54:41;1.20;;;1.10;;
11384;SDS011;5747;56.748;13.882;2023-07-22T10:57:22;1.30;;;0.90;;
11384;SDS011;5747;56.748;13.882;2023-07-22T10:59:51;1.10;;;0.90;;
11384;SDS011;5747;56.748;13.882;2023-07-22T11:02:23;2.93;;;0.90;;
11384;SDS011;5747;56.748;13.882;2023-07-22T11:04:54;1.93;;;1.17;;
11384;SDS011;5747;56.748;13.882;2023-07-22T11:07:31;3.13;;;0.83;;
11384;SDS011;5747;56.748;13.882;2023-07-22T11:10:16;0.93;;;0.70;;
11384;SDS011;5747;56.748;13.882;2023-07-22T11:12:45;1.13;;;0.90;;
11384;SDS011;5747;56.748;13.882;2023-07-22T11:15:15;2.00;;;0.80;;
11384;SDS011;5747;56.748;13.882;2023-07-22T11:17:44;1.23;;;0.90;;
11384;SDS011;5747;56.748;13.882;2023-07-22T11:20:14;3.23;;;0.87;;
11384;SDS011;5747;56.748;13.882;2023-07-22T11:22:42;0.57;;;0.57;;
11384;SDS011;5747;56.748;13.882;2023-07-22T11:25:16;1.73;;;0.90;;
11384;SDS011;5747;56.748;13.882;2023-07-22T11:27:45;3.60;;;0.90;;
11384;SDS011;5747;56.748;13.882;2023-07-22T11:30:13;1.37;;;0.80;;
11384;SDS011;5747;56.748;13.882;2023-07-22T11:32:42;0.70;;;0.70;;
11384;SDS011;5747;56.748;13.882;2023-07-22T11:35:13;0.70;;;0.70;;
11384;SDS011;5747;56.748;13.882;2023-07-22T11:37:44;1.73;;;0.80;;
11384;SDS011;5747;56.748;13.882;2023-07-22T11:40:12;1.77;;;0.90;;
11384;SDS011;5747;56.748;13.882;2023-07-22T11:42:41;0.80;;;0.80;;
11384;SDS011;5747;56.748;13.882;2023-07-22T11:45:11;0.83;;;0.70;;
11384;SDS011;5747;56.748;13.882;2023-07-22T11:47:41;0.93;;;0.80;;
11384;SDS011;5747;56.748;13.882;2023-07-22T11:50:11;0.70;;;0.70;;
11384;SDS011;5747;56.748;13.882;2023-07-22T11:52:40;0.90;;;0.80;;
11384;SDS011;5747;56.748;13.882;2023-07-22T11:55:09;1.00;;;0.80;;
11384;SDS011;5747;56.748;13.882;2023-07-22T11:57:51;1.87;;;0.70;;
11384;SDS011;5747;56.748;13.882;2023-07-22T12:00:20;1.83;;;0.70;;
11384;SDS011;5747;56.748;13.882;2023-07-22T12:02:48;1.30;;;0.50;;
11384;SDS011;5747;56.748;13.882;2023-07-22T12:05:20;0.77;;;0.77;;
11384;SDS011;5747;56.748;13.882;2023-07-22T12:07:50;1.17;;;0.80;;
11384;SDS011;5747;56.748;13.882;2023-07-22T12:10:18;0.63;;;0.63;;
11384;SDS011;5747;56.748;13.882;2023-07-22T12:12:46;0.60;;;0.60;;
11384;SDS011;5747;56.748;13.882;2023-07-22T12:15:16;0.70;;;0.63;;
11384;SDS011;5747;56.748;13.882;2023-07-22T12:17:46;1.13;;;0.87;;
11384;SDS011;5747;56.748;13.882;2023-07-22T12:20:16;0.90;;;0.80;;
11384;SDS011;5747;56.748;13.882;2023-07-22T12:22:45;1.33;;;0.70;;
11384;SDS011;5747;56.748;13.882;2023-07-22T12:25:14;2.73;;;0.70;;
11384;SDS011;5747;56.748;13.882;2023-07-22T12:27:43;0.63;;;0.60;;
11384;SDS011;5747;56.748;13.882;2023-07-22T12:30:11;1.07;;;0.77;;
11384;SDS011;5747;56.748;13.882;2023-07-22T12:32:42;1.90;;;0.80;;
11384;SDS011;5747;56.748;13.882;2023-07-22T12:35:10;1.70;;;0.60;;
11384;SDS011;5747;56.748;13.882;2023-07-22T12:37:40;1.13;;;0.60;;
11384;SDS011;5747;56.748;13.882;2023-07-22T12:40:08;1.30;;;0.80;;
11384;SDS011;5747;56.748;13.882;2023-07-22T12:42:40;0.83;;;0.60;;
11384;SDS011;5747;56.748;13.882;2023-07-22T12:45:09;1.17;;;0.70;;
11384;SDS011;5747;56.748;13.882;2023-07-22T12:47:37;0.70;;;0.60;;
11384;SDS011;5747;56.748;13.882;2023-07-22T12:50:06;0.70;;;0.60;;
11384;SDS011;5747;56.748;13.882;2023-07-22T12:52:35;2.83;;;0.80;;
11384;SDS011;5747;56.748;13.882;2023-07-22T12:55:03;0.80;;;0.63;;
11384;SDS011;5747;56.748;13.882;2023-07-22T12:57:32;2.23;;;0.70;;
11384;SDS011;5747;56.748;13.882;2023-07-22T13:00:01;1.57;;;0.80;;
11384;SDS011;5747;56.748;13.882;2023-07-22T13:02:32;2.70;;;0.60;;
11384;SDS011;5747;56.748;13.882;2023-07-22T13:05:00;1.13;;;0.60;;
11384;SDS011;5747;56.748;13.882;2023-07-22T13:07:28;1.60;;;0.67;;
11384;SDS011;5747;56.748;13.882;2023-07-22T13:09:57;1.43;;;0.60;;
11384;SDS011;5747;56.748;13.882;2023-07-22T13:12:27;4.43;;;0.80;;
11384;SDS011;5747;56.748;13.882;2023-07-22T13:14:55;1.30;;;0.60;;
11384;SDS011;5747;56.748;13.882;2023-07-22T13:17:25;2.07;;;0.57;;
11384;SDS011;5747;56.748;13.882;2023-07-22T13:19:53;1.07;;;0.63;;
11384;SDS011;5747;56.748;13.882;2023-07-22T13:22:21;0.63;;;0.50;;
11384;SDS011;5747;56.748;13.882;2023-07-22T13:24:49;2.50;;;0.70;;
11384;SDS011;5747;56.748;13.882;2023-07-22T13:27:18;2.83;;;0.60;;
11384;SDS011;5747;56.748;13.882;2023-07-22T13:29:46;1.37;;;0.60;;
11384;SDS011;5747;56.748;13.882;2023-07-22T13:32:14;1.17;;;0.60;;
11384;SDS011;5747;56.748;13.882;2023-07-22T13:34:43;0.83;;;0.43;;
11384;SDS011;5747;56.748;13.882;2023-07-22T13:37:11;0.73;;;0.50;;
11384;SDS011;5747;56.748;13.882;2023-07-22T13:39:39;0.90;;;0.57;;
11384;SDS011;5747;56.748;13.882;2023-07-22T13:42:08;1.30;;;0.60;;
11384;SDS011;5747;56.748;13.882;2023-07-22T13:44:36;0.60;;;0.60;;
11384;SDS011;5747;56.748;13.882;2023-07-22T13:47:06;2.00;;;0.70;;
11384;SDS011;5747;56.748;13.882;2023-07-22T13:49:34;0.77;;;0.70;;
11384;SDS011;5747;56.748;13.882;2023-07-22T13:52:04;2.63;;;0.80;;
11384;SDS011;5747;56.748;13.882;2023-07-22T13:54:32;0.60;;;0.60;;
11384;SDS011;5747;56.748;13.882;2023-07-22T13:57:00;1.30;;;0.77;;
11384;SDS011;5747;56.748;13.882;2023-07-22T13:59:28;1.00;;;0.90;;
11384;SDS011;5747;56.748;13.882;2023-07-22T14:01:56;1.00;;;0.60;;
11384;SDS011;5747;56.748;13.882;2023-07-22T14:04:24;1.37;;;0.70;;
11384;SDS011;5747;56.748;13.882;2023-07-22T14:06:52;3.60;;;0.60;;
11384;SDS011;5747;56.748;13.882;2023-07-22T14:09:22;1.47;;;0.80;;
11384;SDS011;5747;56.748;13.882;2023-07-22T14:11:50;0.70;;;0.70;;
11384;SDS011;5747;56.748;13.882;2023-07-22T14:14:18;1.33;;;0.60;;
11384;SDS011;5747;56.748;13.882;2023-07-22T14:16:46;2.13;;;0.50;;
11384;SDS011;5747;56.748;13.882;2023-07-22T14:19:14;1.70;;;0.70;;
11384;SDS011;5747;56.748;13.882;2023-07-22T14:21:43;1.77;;;0.90;;
11384;SDS011;5747;56.748;13.882;2023-07-22T14:24:11;0.50;;;0.50;;
11384;SDS011;5747;56.748;13.882;2023-07-22T14:26:40;1.37;;;0.50;;
11384;SDS011;5747;56.748;13.882;2023-07-22T14:29:08;1.00;;;0.70;;
11384;SDS011;5747;56.748;13.882;2023-07-22T14:31:36;2.27;;;0.70;;
11384;SDS011;5747;56.748;13.882;2023-07-22T14:34:04;0.97;;;0.70;;
11384;SDS011;5747;56.748;13.882;2023-07-22T14:36:33;0.83;;;0.60;;
11384;SDS011;5747;56.748;13.882;2023-07-22T14:39:01;3.67;;;0.80;;
11384;SDS011;5747;56.748;13.882;2023-07-22T14:41:29;0.70;;;0.70;;
11384;SDS011;5747;56.748;13.882;2023-07-22T14:43:58;0.87;;;0.80;;
11384;SDS011;5747;56.748;13.882;2023-07-22T14:46:27;2.07;;;0.73;;
11384;SDS011;5747;56.748;13.882;2023-07-22T14:48:55;0.73;;;0.60;;
11384;SDS011;5747;56.748;13.882;2023-07-22T14:51:23;0.57;;;0.50;;
11384;SDS011;5747;56.748;13.882;2023-07-22T14:53:52;2.63;;;0.90;;
11384;SDS011;5747;56.748;13.882;2023-07-22T14:56:20;0.80;;;0.80;;
11384;SDS011;5747;56.748;13.882;2023-07-22T14:58:48;1.73;;;0.80;;
11384;SDS011;5747;56.748;13.882;2023-07-22T15:01:18;1.00;;;0.90;;